Time;durP1;ratioP1;P1;durP2;ratioP2;P2;SDS_P1;SDS_P2;PMS_P1;PMS_P2;Temp;Humidity;BMP_temperature;BMP_pressure;BME280_temperature;BME280_humidity;BME280_pressure;Samples;Min_cycle;Max_cycle;Signal;HPM_P1;HPM_P2
2023/06/01 00:02:25;;;;;;;7.30;4.20;;;;;;;12.98;51.07;99535.95;107311;1257;73041;-40
2023/06/01 00:04:54;;;;;;;8.80;4.20;;;;;;;12.91;51.36;99533.92;107280;1259;66662;-40
2023/06/01 00:07:23;;;;;;;7.10;4.10;;;;;;;12.86;51.82;99535.11;107291;1258;73010;-40
2023/06/01 00:09:51;;;;;;;8.50;3.90;;;;;;;12.84;52.28;99534.30;107258;1257;60099;-40
2023/06/01 00:12:19;;;;;;;6.10;3.90;;;;;;;12.84;52.94;99533.73;107223;1257;60111;-40
2023/06/01 00:14:46;;;;;;;6.30;4.10;;;;;;;12.80;53.32;99533.94;107317;1256;73071;-40
2023/06/01 00:17:14;;;;;;;8.20;3.80;;;;;;;12.70;53.48;99532.02;107290;1256;66381;-40
2023/06/01 00:19:44;;;;;;;6.90;3.70;;;;;;;12.62;53.90;99534.24;107301;1257;72678;-40
2023/06/01 00:22:12;;;;;;;6.20;3.70;;;;;;;12.58;54.17;99535.36;107329;1257;59980;-40
2023/06/01 00:24:40;;;;;;;6.80;3.60;;;;;;;12.57;53.98;99532.17;107363;1257;60016;-40
2023/06/01 00:27:07;;;;;;;5.50;3.40;;;;;;;12.55;54.13;99534.46;107272;1257;73104;-40
2023/06/01 00:29:35;;;;;;;5.70;3.50;;;;;;;12.52;54.34;99533.88;107313;1256;65783;-40
2023/06/01 00:32:03;;;;;;;6.20;3.60;;;;;;;12.54;54.60;99536.94;107323;1260;72442;-41
2023/06/01 00:34:31;;;;;;;7.90;3.50;;;;;;;12.54;54.58;99534.14;107276;1257;60045;-41
2023/06/01 00:36:59;;;;;;;6.20;3.60;;;;;;;12.47;54.52;99532.34;107260;1257;60006;-40
2023/06/01 00:39:27;;;;;;;5.20;3.40;;;;;;;12.38;54.19;99531.52;107271;1260;73047;-40
2023/06/01 00:41:54;;;;;;;6.20;3.20;;;;;;;12.32;53.89;99531.56;107245;1257;67897;-40
2023/06/01 00:44:25;;;;;;;6.10;3.00;;;;;;;12.31;53.66;99531.80;107283;1257;72667;-40
2023/06/01 00:46:52;;;;;;;5.10;3.00;;;;;;;12.33;53.49;99526.23;107221;1257;60102;-40
2023/06/01 00:49:20;;;;;;;5.80;3.20;;;;;;;12.33;53.59;99527.55;107058;1257;59286;-40
2023/06/01 00:51:48;;;;;;;5.00;2.90;;;;;;;12.33;53.69;99524.84;107257;1257;73044;-40
2023/06/01 00:54:16;;;;;;;8.00;3.30;;;;;;;12.34;53.94;99527.33;107229;1257;67579;-40
2023/06/01 00:56:43;;;;;;;6.50;3.10;;;;;;;12.35;54.05;99523.39;107044;1257;72701;-40
2023/06/01 00:59:12;;;;;;;7.10;3.20;;;;;;;12.34;53.85;99521.81;107196;1262;60071;-40
2023/06/01 01:01:42;;;;;;;6.90;3.20;;;;;;;12.31;54.02;99524.95;107286;1257;60037;-40
2023/06/01 01:04:10;;;;;;;5.30;3.40;;;;;;;12.24;54.12;99524.23;107227;1258;73049;-40
2023/06/01 01:07:00;;;;;;;7.70;2.90;;;;;;;12.22;54.11;99529.33;107259;1257;67579;-40
2023/06/01 01:09:35;;;;;;;5.20;2.90;;;;;;;12.16;54.17;99527.23;107028;1261;73048;-40
2023/06/01 01:12:12;;;;;;;6.50;3.10;;;;;;;12.10;54.58;99528.37;107257;1257;60091;-40
2023/06/01 01:14:44;;;;;;;7.00;3.00;;;;;;;12.08;54.90;99529.04;107085;1263;60148;-40
2023/06/01 01:17:32;;;;;;;5.00;2.90;;;;;;;12.10;54.89;99529.39;107228;1257;73106;-40
2023/06/01 01:20:08;;;;;;;5.10;2.80;;;;;;;12.14;54.69;99526.19;107230;1263;67304;-40
2023/06/01 01:22:38;;;;;;;4.10;2.60;;;;;;;12.14;54.65;99529.06;107292;1258;71391;-40
2023/06/01 01:25:14;;;;;;;4.30;3.00;;;;;;;12.16;54.52;99528.08;107238;1257;59621;-40
2023/06/01 01:28:08;;;;;;;4.60;2.70;;;;;;;12.17;54.22;99525.92;107228;1258;59153;-40
2023/06/01 01:30:37;;;;;;;5.30;3.10;;;;;;;12.19;53.91;99525.71;107038;1257;71853;-40
2023/06/01 01:33:05;;;;;;;5.10;3.10;;;;;;;12.17;53.84;99525.92;107188;1263;67598;-40
2023/06/01 01:35:33;;;;;;;6.00;2.60;;;;;;;12.17;53.72;99529.48;107039;1258;72699;-40
2023/06/01 01:38:02;;;;;;;5.20;2.60;;;;;;;12.16;53.72;99529.94;107023;1260;59695;-39
2023/06/01 01:40:30;;;;;;;3.90;2.80;;;;;;;12.15;53.68;99532.49;107054;1259;60420;-40
2023/06/01 01:42:57;;;;;;;6.90;3.00;;;;;;;12.15;53.55;99532.09;107125;1258;71868;-40
2023/06/01 01:45:25;;;;;;;5.40;2.80;;;;;;;12.14;53.64;99530.45;107047;1257;67643;-40
2023/06/01 01:48:02;;;;;;;8.70;3.30;;;;;;;12.12;53.71;99530.35;107222;1258;72348;-39
2023/06/01 01:50:38;;;;;;;5.00;2.80;;;;;;;12.10;53.72;99533.58;107237;1258;59713;-40
2023/06/01 01:53:06;;;;;;;3.60;2.70;;;;;;;12.09;53.71;99541.34;107209;1258;59563;-40
2023/06/01 01:55:34;;;;;;;6.00;3.20;;;;;;;12.08;53.87;99541.69;107180;1257;73047;-40
2023/06/01 01:58:02;;;;;;;4.90;3.00;;;;;;;12.06;54.19;99538.95;107059;1257;66658;-40
2023/06/01 02:00:31;;;;;;;4.30;2.80;;;;;;;12.05;54.59;99538.63;107080;1257;72720;-39
2023/06/01 02:02:59;;;;;;;5.20;2.60;;;;;;;12.03;54.75;99535.80;107265;1260;59752;-40
2023/06/01 02:05:27;;;;;;;4.80;2.80;;;;;;;12.02;54.90;99534.76;107147;1258;59984;-40
2023/06/01 02:07:55;;;;;;;5.60;2.60;;;;;;;12.00;54.74;99536.05;107062;1261;73091;-40
2023/06/01 02:10:22;;;;;;;6.70;2.90;;;;;;;11.99;54.95;99535.34;107065;1261;66817;-40
2023/06/01 02:12:50;;;;;;;3.90;2.80;;;;;;;11.97;55.09;99531.42;107040;1258;72821;-40
2023/06/01 02:15:18;;;;;;;6.80;2.90;;;;;;;11.93;55.25;99536.10;107056;1257;59445;-40
2023/06/01 02:17:46;;;;;;;5.50;2.40;;;;;;;11.91;55.60;99537.63;107200;1257;60006;-40
2023/06/01 02:20:14;;;;;;;3.70;2.60;;;;;;;11.91;55.88;99540.34;107047;1257;71821;-40
2023/06/01 02:22:42;;;;;;;6.50;2.70;;;;;;;11.90;56.42;99536.52;107065;1258;67564;-40
2023/06/01 02:25:11;;;;;;;6.70;3.00;;;;;;;11.90;56.71;99535.89;107048;1257;72739;-40
2023/06/01 02:27:38;;;;;;;7.20;2.90;;;;;;;11.91;56.83;99538.55;107146;1262;59618;-40
2023/06/01 02:30:08;;;;;;;6.00;2.70;;;;;;;11.91;57.03;99541.59;107325;1257;59481;-40
2023/06/01 02:32:37;;;;;;;4.90;2.70;;;;;;;11.93;57.10;99545.48;107228;1256;71785;-40
2023/06/01 02:35:08;;;;;;;6.20;2.50;;;;;;;11.94;57.14;99550.47;107228;1257;67599;-40
2023/06/01 02:37:36;;;;;;;6.20;3.00;;;;;;;11.96;57.25;99546.54;107187;1258;71400;-40
2023/06/01 02:40:06;;;;;;;4.90;2.70;;;;;;;11.97;57.48;99544.39;107188;1257;60318;-40
2023/06/01 02:42:34;;;;;;;4.80;3.10;;;;;;;11.99;57.53;99540.55;107115;1257;60508;-40
2023/06/01 02:45:04;;;;;;;3.60;2.50;;;;;;;11.99;57.32;99540.08;107063;1257;73068;-40
2023/06/01 02:47:31;;;;;;;4.90;2.90;;;;;;;11.98;57.15;99540.28;107227;1257;66874;-40
2023/06/01 02:49:59;;;;;;;7.20;2.90;;;;;;;11.95;57.21;99537.91;107167;1260;72709;-40
2023/06/01 02:52:27;;;;;;;5.90;2.60;;;;;;;11.95;57.17;99537.83;107271;1257;60541;-40
2023/06/01 02:54:55;;;;;;;10.20;3.00;;;;;;;12.00;57.26;99537.46;107192;1257;60383;-40
2023/06/01 02:57:50;;;;;;;6.20;2.70;;;;;;;12.06;57.33;99538.71;107194;1257;73853;-40
2023/06/01 03:00:18;;;;;;;3.80;2.70;;;;;;;12.10;57.52;99538.70;107188;1262;67918;-40
2023/06/01 03:02:47;;;;;;;11.00;3.40;;;;;;;12.15;57.37;99530.63;107223;1258;71403;-40
2023/06/01 03:05:16;;;;;;;7.70;2.90;;;;;;;12.22;57.39;99533.98;107018;1257;60604;-40
2023/06/01 03:07:48;;;;;;;5.70;2.70;;;;;;;12.28;57.01;99532.14;107272;1257;60313;-40
2023/06/01 03:10:24;;;;;;;5.70;2.80;;;;;;;12.35;56.69;99532.41;107222;1257;72557;-40
2023/06/01 03:13:03;;;;;;;4.80;3.00;;;;;;;12.42;56.43;99531.09;107261;1257;66775;-40
2023/06/01 03:15:31;;;;;;;8.40;3.20;;;;;;;12.48;56.22;99530.25;107194;1257;71382;-40
2023/06/01 03:18:01;;;;;;;7.60;3.20;;;;;;;12.55;56.15;99528.64;107297;1257;60540;-40
2023/06/01 03:20:29;;;;;;;9.70;3.10;;;;;;;12.62;55.86;99527.49;107246;1257;60399;-40
2023/06/01 03:22:57;;;;;;;6.80;3.10;;;;;;;12.71;55.68;99527.05;107242;1257;73480;-40
2023/06/01 03:25:24;;;;;;;7.20;2.90;;;;;;;12.78;54.75;99528.14;107082;1257;67570;-40
2023/06/01 03:27:52;;;;;;;5.30;2.70;;;;;;;12.82;54.03;99526.66;107213;1257;71529;-40
2023/06/01 03:30:21;;;;;;;6.30;3.30;;;;;;;12.87;54.06;99530.91;107218;1257;60328;-40
2023/06/01 03:32:49;;;;;;;7.20;3.00;;;;;;;12.91;53.65;99526.98;107319;1257;60302;-40
2023/06/01 03:35:16;;;;;;;4.60;2.80;;;;;;;12.92;53.72;99527.33;107200;1257;74018;-40
2023/06/01 03:37:46;;;;;;;6.50;3.00;;;;;;;12.95;53.19;99529.06;107081;1257;66414;-40
2023/06/01 03:40:16;;;;;;;8.50;3.50;;;;;;;12.98;53.10;99526.45;107219;1258;72676;-40
2023/06/01 03:42:46;;;;;;;4.70;3.30;;;;;;;13.00;53.21;99525.23;107235;1257;60277;-40
2023/06/01 03:45:15;;;;;;;5.00;3.10;;;;;;;13.05;53.62;99528.71;107139;1257;60309;-40
2023/06/01 03:47:43;;;;;;;7.80;3.40;;;;;;;13.11;53.60;99527.15;107220;1257;72612;-40
2023/06/01 03:50:11;;;;;;;6.20;3.20;;;;;;;13.17;53.38;99526.77;107248;1257;67681;-40
2023/06/01 03:52:39;;;;;;;10.90;3.90;;;;;;;13.24;53.40;99522.73;107233;1257;72827;-40
2023/06/01 03:55:10;;;;;;;7.30;3.50;;;;;;;13.32;53.63;99525.08;107227;1257;60216;-40
2023/06/01 03:57:58;;;;;;;10.30;3.80;;;;;;;13.41;53.97;99521.90;107271;1257;60380;-41
2023/06/01 04:00:26;;;;;;;7.10;3.10;;;;;;;13.48;53.75;99514.42;107190;1257;73859;-40
2023/06/01 04:02:57;;;;;;;9.00;3.70;;;;;;;13.57;53.86;99513.95;107206;1261;66367;-40
2023/06/01 04:05:25;;;;;;;9.20;4.00;;;;;;;13.65;53.36;99516.13;107114;1256;72724;-40
2023/06/01 04:07:54;;;;;;;10.60;4.10;;;;;;;13.72;53.08;99517.52;107197;1260;60538;-40
2023/06/01 04:10:22;;;;;;;9.10;3.80;;;;;;;13.79;53.14;99519.67;107106;1257;60719;-40
2023/06/01 04:12:50;;;;;;;11.60;4.10;;;;;;;13.87;53.39;99513.36;107226;1257;73915;-40
2023/06/01 04:15:19;;;;;;;12.10;4.40;;;;;;;13.96;53.27;99511.96;107093;1256;67726;-40
2023/06/01 04:17:47;;;;;;;8.60;4.00;;;;;;;14.04;53.34;99509.68;107235;1257;71737;-40
2023/06/01 04:20:16;;;;;;;9.70;3.80;;;;;;;14.13;53.92;99510.98;107224;1257;60466;-40
2023/06/01 04:22:45;;;;;;;10.30;3.80;;;;;;;14.24;53.98;99508.96;107141;1259;60412;-40
2023/06/01 04:25:18;;;;;;;13.10;3.40;;;;;;;14.34;53.83;99511.60;107274;1257;74318;-40
2023/06/01 04:27:48;;;;;;;7.00;3.00;;;;;;;14.45;53.55;99510.66;107262;1262;66598;-40
2023/06/01 04:30:16;;;;;;;8.30;3.00;;;;;;;14.55;53.01;99509.33;107042;1260;72010;-40
2023/06/01 04:32:45;;;;;;;9.80;3.20;;;;;;;14.67;52.91;99513.35;107211;1257;60489;-40
2023/06/01 04:35:13;;;;;;;4.70;2.60;;;;;;;14.79;53.38;99512.32;107076;1257;59853;-40
2023/06/01 04:37:42;;;;;;;6.80;2.80;;;;;;;14.92;52.94;99516.20;107255;1257;73873;-40
2023/06/01 04:40:12;;;;;;;5.60;3.30;;;;;;;15.05;52.47;99516.87;107249;1257;66312;-40
2023/06/01 04:42:41;;;;;;;8.60;3.60;;;;;;;15.16;51.79;99511.05;107067;1260;72686;-40
2023/06/01 04:45:09;;;;;;;9.20;2.80;;;;;;;15.30;51.60;99506.70;107207;1257;60319;-40
2023/06/01 04:47:44;;;;;;;7.20;2.90;;;;;;;15.42;50.99;99504.86;107225;1257;60335;-40
2023/06/01 04:50:28;;;;;;;7.40;2.90;;;;;;;15.56;50.48;99504.60;107247;1257;73890;-40
2023/06/01 04:52:57;;;;;;;7.40;2.90;;;;;;;15.67;49.71;99502.19;107290;1256;67888;-40
2023/06/01 04:55:25;;;;;;;4.70;2.60;;;;;;;15.80;49.68;99502.88;107252;1257;72777;-40
2023/06/01 04:57:53;;;;;;;5.30;2.60;;;;;;;15.92;49.73;99500.54;107250;1257;60472;-40
2023/06/01 05:00:22;;;;;;;8.30;2.90;;;;;;;16.04;49.92;99504.91;107189;1256;60437;-40
2023/06/01 05:02:50;;;;;;;4.70;2.70;;;;;;;16.16;49.13;99502.86;107273;1261;73882;-40
2023/06/01 05:05:19;;;;;;;4.40;2.80;;;;;;;16.28;48.41;99498.94;107241;1257;66300;-40
2023/06/01 05:07:48;;;;;;;6.00;2.90;;;;;;;16.38;48.31;99497.83;107243;1257;71450;-40
2023/06/01 05:10:16;;;;;;;5.80;3.00;;;;;;;16.50;48.44;99497.56;107334;1256;60279;-40
2023/06/01 05:12:45;;;;;;;7.10;2.80;;;;;;;16.62;48.19;99496.69;107226;1257;60309;-40
2023/06/01 05:15:16;;;;;;;4.60;2.80;;;;;;;16.74;47.69;99495.55;107239;1257;72588;-40
2023/06/01 05:17:44;;;;;;;4.30;2.40;;;;;;;16.87;46.36;99491.89;107214;1257;67608;-40
2023/06/01 05:20:16;;;;;;;9.50;3.00;;;;;;;16.99;46.35;99486.38;107243;1257;73146;-40
2023/06/01 05:22:48;;;;;;;5.70;2.50;;;;;;;17.10;46.75;99491.08;107256;1257;60511;-40
2023/06/01 05:25:17;;;;;;;4.30;2.60;;;;;;;17.22;46.36;99489.45;107245;1257;60283;-39
2023/06/01 05:27:45;;;;;;;5.80;3.00;;;;;;;17.34;46.20;99486.55;107246;1257;72279;-40
2023/06/01 05:30:12;;;;;;;9.30;3.20;;;;;;;17.47;46.14;99490.70;107212;1261;67031;-40
2023/06/01 05:32:41;;;;;;;6.30;2.80;;;;;;;17.60;45.96;99492.97;107099;1257;71404;-40
2023/06/01 05:35:15;;;;;;;6.50;3.00;;;;;;;17.72;45.14;99490.94;107224;1262;60421;-40
2023/06/01 05:37:43;;;;;;;4.90;2.80;;;;;;;17.84;45.91;99484.80;107246;1257;60345;-40
2023/06/01 05:40:14;;;;;;;4.20;2.40;;;;;;;17.98;45.32;99482.95;107249;1257;73479;-40
2023/06/01 05:42:42;;;;;;;7.30;2.70;;;;;;;18.11;44.61;99484.71;107047;1257;66765;-40
2023/06/01 05:45:10;;;;;;;5.80;2.80;;;;;;;18.23;44.57;99486.08;107212;1257;71407;-40
2023/06/01 05:47:38;;;;;;;3.80;2.50;;;;;;;18.37;44.55;99488.20;107266;1257;59736;-40
2023/06/01 05:50:06;;;;;;;5.30;2.70;;;;;;;18.47;43.85;99484.95;107253;1257;59711;-40
2023/06/01 05:52:34;;;;;;;5.40;2.20;;;;;;;18.58;43.75;99485.34;107247;1257;73837;-40
2023/06/01 05:55:03;;;;;;;4.00;2.40;;;;;;;18.69;43.33;99484.11;107229;1256;66655;-40
2023/06/01 05:57:31;;;;;;;8.20;2.50;;;;;;;18.79;42.37;99484.45;107281;1262;72736;-40
2023/06/01 05:59:58;;;;;;;3.90;2.30;;;;;;;18.89;42.37;99486.84;107242;1256;60503;-40
2023/06/01 06:02:26;;;;;;;6.70;2.50;;;;;;;19.00;41.61;99489.21;107255;1257;60392;-40
2023/06/01 06:04:54;;;;;;;3.60;2.30;;;;;;;19.09;41.51;99490.13;107221;1257;72633;-40
2023/06/01 06:07:22;;;;;;;6.00;2.60;;;;;;;19.18;41.61;99491.95;107238;1257;66461;-40
2023/06/01 06:09:50;;;;;;;11.30;2.40;;;;;;;19.28;40.86;99493.70;107227;1257;70418;-40
2023/06/01 06:12:18;;;;;;;4.10;2.20;;;;;;;19.37;40.10;99487.98;107276;1257;59874;-40
2023/06/01 06:14:46;;;;;;;3.30;2.30;;;;;;;19.47;40.27;99489.66;107223;1257;60460;-39
2023/06/01 06:17:14;;;;;;;5.50;2.40;;;;;;;19.59;40.14;99486.20;107252;1257;73878;-39
2023/06/01 06:19:44;;;;;;;4.60;2.20;;;;;;;19.70;39.91;99485.09;107153;1259;67593;-39
2023/06/01 06:22:12;;;;;;;5.60;2.60;;;;;;;19.80;39.00;99484.45;107260;1257;72700;-39
2023/06/01 06:24:39;;;;;;;8.30;2.80;;;;;;;19.89;39.25;99483.12;107282;1257;60396;-39
2023/06/01 06:27:11;;;;;;;5.70;2.70;;;;;;;19.99;38.90;99480.52;107209;1257;60354;-39
2023/06/01 06:29:40;;;;;;;3.30;2.20;;;;;;;20.10;38.52;99474.96;107259;1257;73854;-40
2023/06/01 06:32:08;;;;;;;6.00;2.70;;;;;;;20.21;38.77;99473.27;107268;1257;67596;-39
2023/06/01 06:34:36;;;;;;;5.60;2.50;;;;;;;20.34;38.73;99474.14;107224;1261;71784;-40
2023/06/01 06:37:06;;;;;;;4.30;2.60;;;;;;;20.47;37.92;99465.34;107240;1257;60306;-39
2023/06/01 06:39:33;;;;;;;4.50;2.70;;;;;;;20.58;37.65;99465.59;107214;1257;60299;-39
2023/06/01 06:42:02;;;;;;;4.20;2.90;;;;;;;20.69;37.59;99461.52;107185;1257;72668;-40
2023/06/01 06:44:30;;;;;;;7.90;3.20;;;;;;;20.82;37.07;99463.44;107103;1257;67859;-40
2023/06/01 06:46:58;;;;;;;3.30;2.50;;;;;;;20.95;36.65;99468.04;107244;1257;71436;-39
2023/06/01 06:49:28;;;;;;;8.50;3.20;;;;;;;21.04;36.39;99472.41;107249;1256;60081;-40
2023/06/01 06:51:56;;;;;;;5.70;3.20;;;;;;;21.11;36.27;99469.75;107242;1258;60296;-39
2023/06/01 06:54:24;;;;;;;6.10;2.90;;;;;;;21.16;35.98;99467.91;107220;1256;72635;-39
2023/06/01 06:56:52;;;;;;;5.80;2.50;;;;;;;21.25;35.47;99467.41;107244;1257;67077;-39
2023/06/01 06:59:19;;;;;;;8.70;3.10;;;;;;;21.31;35.60;99463.96;107252;1257;72710;-39
2023/06/01 07:01:47;;;;;;;5.30;3.00;;;;;;;21.41;35.41;99462.62;107198;1260;60525;-39
2023/06/01 07:04:15;;;;;;;5.70;2.80;;;;;;;21.48;35.23;99460.24;107209;1257;60578;-39
2023/06/01 07:06:43;;;;;;;4.00;2.40;;;;;;;21.55;35.01;99459.30;107162;1260;72582;-39
2023/06/01 07:09:11;;;;;;;4.50;2.50;;;;;;;21.60;34.12;99457.59;107219;1258;67583;-39
2023/06/01 07:11:42;;;;;;;6.60;2.80;;;;;;;21.62;34.11;99452.97;107289;1257;72123;-39
2023/06/01 07:14:10;;;;;;;7.30;2.80;;;;;;;21.65;34.15;99456.84;107153;1257;60184;-40
2023/06/01 07:16:38;;;;;;;4.30;2.70;;;;;;;21.71;34.59;99449.98;107249;1257;60328;-40
2023/06/01 07:19:07;;;;;;;7.40;2.70;;;;;;;21.82;34.36;99447.42;107275;1257;74142;-40
2023/06/01 07:21:36;;;;;;;6.20;3.00;;;;;;;21.93;34.01;99441.59;107299;1257;66305;-39
2023/06/01 07:24:05;;;;;;;6.00;3.10;;;;;;;22.06;34.09;99447.79;107192;1257;72712;-40
2023/06/01 07:26:32;;;;;;;9.40;2.40;;;;;;;22.18;33.22;99445.20;107265;1257;62037;-40
2023/06/01 07:29:00;;;;;;;5.50;2.70;;;;;;;22.24;31.81;99442.09;107248;1257;60868;-39
2023/06/01 07:31:28;;;;;;;3.70;2.20;;;;;;;22.30;32.07;99433.72;107237;1256;72624;-40
2023/06/01 07:33:56;;;;;;;5.60;2.40;;;;;;;22.37;32.88;99431.77;107254;1257;68020;-39
2023/06/01 07:36:24;;;;;;;4.70;2.50;;;;;;;22.41;33.34;99428.42;107227;1257;72698;-39
2023/06/01 07:38:51;;;;;;;4.50;2.60;;;;;;;22.52;33.55;99426.16;107236;1256;60416;-40
2023/06/01 07:41:19;;;;;;;6.40;2.40;;;;;;;22.64;32.40;99428.66;107210;1257;59772;-40
2023/06/01 07:43:47;;;;;;;6.30;3.00;;;;;;;22.68;31.75;99423.98;107193;1256;74145;-40
2023/06/01 07:46:15;;;;;;;6.20;2.40;;;;;;;22.70;31.80;99426.83;107240;1257;67596;-40
2023/06/01 07:48:43;;;;;;;4.70;2.30;;;;;;;22.76;32.15;99420.17;107220;1257;71404;-40
2023/06/01 07:51:11;;;;;;;6.50;2.40;;;;;;;22.86;31.35;99417.76;107232;1257;59291;-40
2023/06/01 07:53:38;;;;;;;4.80;2.50;;;;;;;22.97;31.31;99416.64;107235;1257;60080;-40
2023/06/01 07:56:07;;;;;;;3.50;2.20;;;;;;;23.10;31.27;99416.32;107218;1257;74559;-39
2023/06/01 07:58:36;;;;;;;4.90;2.50;;;;;;;23.26;30.44;99416.20;107242;1257;67578;-40
2023/06/01 08:01:05;;;;;;;4.10;2.30;;;;;;;23.38;30.65;99415.35;107193;1261;71449;-40
2023/06/01 08:03:33;;;;;;;5.40;2.30;;;;;;;23.53;30.41;99413.47;107209;1257;60436;-39
2023/06/01 08:06:04;;;;;;;7.10;2.90;;;;;;;23.66;29.92;99409.45;107211;1257;60383;-40
2023/06/01 08:08:33;;;;;;;6.40;2.20;;;;;;;23.74;29.14;99413.38;107221;1256;73899;-40
2023/06/01 08:11:01;;;;;;;5.90;2.20;;;;;;;23.69;29.25;99411.36;107291;1257;67528;-40
2023/06/01 08:13:28;;;;;;;4.40;2.30;;;;;;;23.66;29.64;99407.09;107216;1257;73180;-40
2023/06/01 08:15:56;;;;;;;3.20;2.20;;;;;;;23.68;29.59;99405.36;107251;1257;60555;-40
2023/06/01 08:18:24;;;;;;;5.90;1.90;;;;;;;23.73;29.34;99401.16;107216;1257;59592;-40
2023/06/01 08:20:53;;;;;;;4.30;2.50;;;;;;;23.78;28.98;99399.41;107211;1257;73881;-39
2023/06/01 08:23:22;;;;;;;2.70;1.80;;;;;;;23.80;28.76;99393.22;107206;1257;67916;-39
2023/06/01 08:25:50;;;;;;;6.80;2.10;;;;;;;23.85;29.28;99393.40;107248;1256;73065;-40
2023/06/01 08:28:18;;;;;;;6.60;2.40;;;;;;;23.89;28.20;99390.55;107274;1257;60533;-39
2023/06/01 08:30:45;;;;;;;5.50;2.50;;;;;;;23.93;28.14;99387.36;107244;1257;60362;-39
2023/06/01 08:33:13;;;;;;;5.50;1.90;;;;;;;23.96;29.19;99378.46;107245;1257;74009;-40
2023/06/01 08:35:41;;;;;;;4.70;2.30;;;;;;;24.04;29.11;99374.46;107251;1257;68021;-40
2023/06/01 08:38:09;;;;;;;3.90;2.40;;;;;;;24.15;28.79;99373.82;107245;1256;73387;-40
2023/06/01 08:40:38;;;;;;;4.10;2.50;;;;;;;24.29;29.21;99371.14;107234;1257;60320;-40
2023/06/01 08:43:15;;;;;;;4.40;2.40;;;;;;;24.45;29.09;99358.71;107235;1262;60456;-39
2023/06/01 08:45:43;;;;;;;6.10;2.10;;;;;;;24.61;28.42;99362.36;107236;1257;73832;-40
2023/06/01 08:48:14;;;;;;;6.50;2.00;;;;;;;24.65;28.10;99362.73;107292;1257;66984;-40
2023/06/01 08:50:44;;;;;;;4.30;2.30;;;;;;;24.66;27.59;99355.06;107229;1256;72714;-40
2023/06/01 08:53:12;;;;;;;4.00;2.20;;;;;;;24.68;27.96;99359.82;107232;1257;60058;-40
2023/06/01 08:55:41;;;;;;;6.40;2.20;;;;;;;24.75;28.06;99355.77;107250;1256;60018;-40
2023/06/01 08:58:09;;;;;;;8.20;2.30;;;;;;;24.86;27.92;99355.18;107265;1257;72024;-40
2023/06/01 09:00:37;;;;;;;3.60;2.20;;;;;;;25.01;28.44;99350.05;107201;1257;66548;-40
2023/06/01 09:03:05;;;;;;;5.40;2.20;;;;;;;25.18;27.99;99351.86;107062;1257;71405;-40
2023/06/01 09:05:33;;;;;;;4.30;2.30;;;;;;;25.27;27.74;99353.05;107240;1256;60400;-40
2023/06/01 09:08:02;;;;;;;4.80;2.20;;;;;;;25.28;27.72;99347.23;107217;1257;60348;-40
2023/06/01 09:10:30;;;;;;;6.50;2.40;;;;;;;25.26;27.30;99344.75;107124;1256;73941;-40
2023/06/01 09:12:57;;;;;;;4.20;2.40;;;;;;;25.27;26.71;99348.61;107155;1256;67938;-40
2023/06/01 09:15:25;;;;;;;5.60;2.20;;;;;;;25.26;26.64;99339.70;107184;1257;72714;-40
2023/06/01 09:18:05;;;;;;;5.00;2.00;;;;;;;25.23;26.99;99332.76;107176;1262;60430;-39
2023/06/01 09:20:32;;;;;;;4.60;2.30;;;;;;;25.21;26.71;99336.58;107224;1257;60022;-40
2023/06/01 09:23:00;;;;;;;7.80;2.40;;;;;;;25.14;26.96;99337.89;107227;1257;72692;-40
2023/06/01 09:25:28;;;;;;;5.00;2.20;;;;;;;25.12;26.60;99338.00;107096;1257;66553;-40
2023/06/01 09:27:57;;;;;;;5.60;2.30;;;;;;;25.10;26.29;99333.63;107224;1257;72734;-40
2023/06/01 09:30:26;;;;;;;3.80;2.30;;;;;;;25.12;26.56;99332.05;107220;1258;60534;-40
2023/06/01 09:33:09;;;;;;;3.70;2.00;;;;;;;25.20;27.47;99328.40;107343;1256;60247;-40
2023/06/01 09:35:38;;;;;;;4.70;2.00;;;;;;;25.35;26.49;99330.35;107227;1257;73850;-40
2023/06/01 09:38:06;;;;;;;6.50;2.10;;;;;;;25.44;27.25;99325.39;107207;1257;67917;-40
2023/06/01 09:40:35;;;;;;;7.10;2.40;;;;;;;25.52;26.27;99322.83;107084;1260;72723;-40
2023/06/01 09:43:03;;;;;;;4.90;2.10;;;;;;;25.58;26.45;99317.61;107288;1258;60322;-39
2023/06/01 09:45:31;;;;;;;6.20;2.00;;;;;;;25.62;26.60;99318.16;107235;1257;60265;-40
2023/06/01 09:48:16;;;;;;;2.70;1.80;;;;;;;25.66;26.58;99315.98;107073;1257;72566;-40
2023/06/01 09:50:44;;;;;;;4.60;2.40;;;;;;;25.70;26.49;99314.30;107119;1257;67566;-40
2023/06/01 09:53:13;;;;;;;5.60;2.30;;;;;;;25.78;26.55;99316.73;107224;1257;72814;-40
2023/06/01 09:55:57;;;;;;;4.00;2.20;;;;;;;25.90;26.22;99310.00;107197;1257;60421;-39
2023/06/01 09:58:26;;;;;;;3.90;2.30;;;;;;;26.03;25.97;99305.63;107327;1253;60323;-40
2023/06/01 10:00:53;;;;;;;4.90;2.30;;;;;;;26.03;26.52;99305.48;107444;1254;73891;-40
2023/06/01 10:03:21;;;;;;;12.50;6.80;;;;;;;26.02;26.71;99303.23;107452;1253;67929;-40
2023/06/01 10:05:51;;;;;;;4.30;2.30;;;;;;;26.08;26.56;99299.45;107396;1253;72711;-40
2023/06/01 10:08:19;;;;;;;4.30;2.30;;;;;;;26.15;26.18;99299.59;107484;1254;60785;-40
2023/06/01 10:10:48;;;;;;;6.10;2.30;;;;;;;26.24;25.34;99296.25;107536;1254;60511;-40
2023/06/01 10:13:16;;;;;;;3.60;2.00;;;;;;;26.35;25.58;99293.99;107437;1253;73848;-39
2023/06/01 10:15:43;;;;;;;3.40;2.00;;;;;;;26.49;26.22;99289.64;107476;1254;67572;-39
2023/06/01 10:18:11;;;;;;;10.10;2.70;;;;;;;26.64;25.83;99290.85;107470;1254;72675;-39
2023/06/01 10:20:39;;;;;;;4.80;3.00;;;;;;;26.64;25.89;99293.74;107509;1254;60541;-40
2023/06/01 10:23:07;;;;;;;6.30;2.40;;;;;;;26.66;25.75;99288.36;107468;1254;60303;-39
2023/06/01 10:25:50;;;;;;;4.80;2.50;;;;;;;26.77;25.78;99295.36;107449;1254;73844;-39
2023/06/01 10:28:17;;;;;;;4.20;2.50;;;;;;;26.84;25.19;99289.31;107446;1254;67620;-40
2023/06/01 10:30:46;;;;;;;6.20;2.90;;;;;;;26.87;25.65;99290.78;107283;1259;73166;-40
2023/06/01 10:33:14;;;;;;;4.60;2.10;;;;;;;26.97;25.25;99287.65;107524;1253;60502;-40
2023/06/01 10:35:47;;;;;;;5.20;2.70;;;;;;;27.12;24.80;99288.08;107357;1254;60527;-40
2023/06/01 10:38:14;;;;;;;4.80;2.60;;;;;;;27.20;24.57;99285.37;107426;1254;73983;-39
2023/06/01 10:40:43;;;;;;;7.10;2.70;;;;;;;27.25;24.59;99281.25;107414;1258;66267;-39
2023/06/01 10:45:49;;;;;;;5.00;2.20;;;;;;;27.57;24.71;99271.80;104164;1293;601105;-40
2023/06/01 10:48:17;;;;;;;3.80;2.30;;;;;;;27.83;24.51;99266.08;106603;1267;60042;-40
2023/06/01 10:50:45;;;;;;;5.50;2.80;;;;;;;28.03;23.87;99266.42;106607;1267;60585;-40
2023/06/01 10:53:23;;;;;;;9.00;3.20;;;;;;;28.08;22.89;99266.25;106638;1264;72803;-39
2023/06/01 10:56:23;;;;;;;5.30;3.00;;;;;;;28.07;23.88;99265.27;106783;1262;67866;-39
2023/06/01 10:59:12;;;;;;;4.80;2.40;;;;;;;28.26;23.98;99259.89;106614;1261;215305;-40
2023/06/01 11:01:46;;;;;;;3.90;2.50;;;;;;;28.48;23.56;99254.91;106992;1260;60131;-40
2023/06/01 11:04:15;;;;;;;5.30;2.30;;;;;;;28.51;23.35;99249.45;106860;1261;60474;-40
2023/06/01 11:06:43;;;;;;;3.50;2.30;;;;;;;28.64;23.23;99245.27;106907;1260;71028;-39
2023/06/01 11:09:11;;;;;;;7.90;2.20;;;;;;;28.90;23.40;99241.20;106888;1266;67576;-41
2023/06/01 11:11:51;;;;;;;6.40;2.30;;;;;;;29.14;23.30;99243.17;106918;1260;72702;-40
2023/06/01 11:14:23;;;;;;;4.10;2.40;;;;;;;29.22;22.37;99242.62;106985;1264;60096;-39
2023/06/01 11:16:54;;;;;;;5.90;2.30;;;;;;;29.17;22.99;99238.00;106910;1261;60122;-40
2023/06/01 11:19:25;;;;;;;3.40;2.20;;;;;;;29.29;23.07;99228.55;106848;1263;73521;-40
2023/06/01 11:22:01;;;;;;;5.70;2.20;;;;;;;29.54;22.35;99224.98;106935;1264;67610;-40
2023/06/01 11:24:34;;;;;;;3.60;2.40;;;;;;;29.62;22.64;99226.55;106811;1264;71985;-40
2023/06/01 11:27:10;;;;;;;7.50;2.60;;;;;;;29.59;21.96;99222.35;106944;1265;59605;-40
2023/06/01 11:29:38;;;;;;;127.00;12.90;;;;;;;29.75;22.27;99221.95;106931;1261;60553;-40
2023/06/01 11:32:06;;;;;;;5.30;2.60;;;;;;;30.09;22.39;99223.50;107028;1266;73065;-40
2023/06/01 11:34:34;;;;;;;5.90;2.20;;;;;;;30.48;21.98;99220.55;107067;1265;67730;-40
2023/06/01 11:37:03;;;;;;;2.90;2.10;;;;;;;30.82;21.61;99216.45;106823;1261;71700;-40
2023/06/01 11:39:30;;;;;;;5.70;2.30;;;;;;;31.06;21.27;99212.50;106743;1263;59647;-40